sensor_id;sensor_type;location;lat;lon;timestamp;P1;durP1;ratioP1;P2;durP2;ratioP2
24787;SDS011;12883;52.662;5.196;2024-01-25T00:00:40;9.60;;;9.40;;
24787;SDS011;12883;52.662;5.196;2024-01-25T00:03:06;9.87;;;9.67;;
24787;SDS011;12883;52.662;5.196;2024-01-25T00:05:31;10.00;;;9.80;;
24787;SDS011;12883;52.662;5.196;2024-01-25T00:07:57;9.50;;;9.30;;
24787;SDS011;12883;52.662;5.196;2024-01-25T00:10:22;10.33;;;10.13;;
24787;SDS011;12883;52.662;5.196;2024-01-25T00:12:48;9.50;;;9.30;;
24787;SDS011;12883;52.662;5.196;2024-01-25T00:15:13;10.07;;;9.87;;
24787;SDS011;12883;52.662;5.196;2024-01-25T00:17:38;9.60;;;9.40;;
24787;SDS011;12883;52.662;5.196;2024-01-25T00:20:04;10.10;;;9.90;;
24787;SDS011;12883;52.662;5.196;2024-01-25T00:22:30;10.30;;;10.10;;
24787;SDS011;12883;52.662;5.196;2024-01-25T00:24:55;9.73;;;9.53;;
24787;SDS011;12883;52.662;5.196;2024-01-25T00:27:21;8.90;;;8.70;;
24787;SDS011;12883;52.662;5.196;2024-01-25T00:29:46;9.87;;;9.70;;
24787;SDS011;12883;52.662;5.196;2024-01-25T00:32:11;10.40;;;10.20;;
24787;SDS011;12883;52.662;5.196;2024-01-25T00:34:37;10.50;;;10.30;;
24787;SDS011;12883;52.662;5.196;2024-01-25T00:37:02;10.90;;;10.70;;
24787;SDS011;12883;52.662;5.196;2024-01-25T00:39:28;10.77;;;10.57;;
24787;SDS011;12883;52.662;5.196;2024-01-25T00:41:55;11.10;;;10.90;;
24787;SDS011;12883;52.662;5.196;2024-01-25T00:44:28;10.13;;;9.93;;
24787;SDS011;12883;52.662;5.196;2024-01-25T00:46:54;8.90;;;8.73;;
24787;SDS011;12883;52.662;5.196;2024-01-25T00:49:20;11.00;;;10.80;;
24787;SDS011;12883;52.662;5.196;2024-01-25T00:51:46;8.67;;;8.47;;
24787;SDS011;12883;52.662;5.196;2024-01-25T00:54:13;10.57;;;10.37;;
24787;SDS011;12883;52.662;5.196;2024-01-25T00:56:42;10.43;;;10.23;;
24787;SDS011;12883;52.662;5.196;2024-01-25T00:59:07;9.37;;;9.17;;
24787;SDS011;12883;52.662;5.196;2024-01-25T01:01:33;9.50;;;9.30;;
24787;SDS011;12883;52.662;5.196;2024-01-25T01:03:59;9.97;;;9.77;;
24787;SDS011;12883;52.662;5.196;2024-01-25T01:06:25;9.67;;;9.47;;
24787;SDS011;12883;52.662;5.196;2024-01-25T01:08:51;9.80;;;9.60;;
24787;SDS011;12883;52.662;5.196;2024-01-25T01:11:17;10.60;;;10.40;;
24787;SDS011;12883;52.662;5.196;2024-01-25T01:13:43;10.90;;;10.70;;
24787;SDS011;12883;52.662;5.196;2024-01-25T01:16:08;11.40;;;11.20;;
24787;SDS011;12883;52.662;5.196;2024-01-25T01:18:34;10.47;;;10.27;;
24787;SDS011;12883;52.662;5.196;2024-01-25T01:20:59;9.67;;;9.47;;
24787;SDS011;12883;52.662;5.196;2024-01-25T01:23:25;10.03;;;9.83;;
24787;SDS011;12883;52.662;5.196;2024-01-25T01:25:50;10.50;;;10.30;;
24787;SDS011;12883;52.662;5.196;2024-01-25T01:28:16;11.13;;;10.93;;
24787;SDS011;12883;52.662;5.196;2024-01-25T01:30:41;9.80;;;9.70;;
24787;SDS011;12883;52.662;5.196;2024-01-25T01:33:10;8.90;;;8.70;;
24787;SDS011;12883;52.662;5.196;2024-01-25T01:35:35;10.93;;;10.73;;
24787;SDS011;12883;52.662;5.196;2024-01-25T01:38:00;8.43;;;8.33;;
24787;SDS011;12883;52.662;5.196;2024-01-25T01:40:27;10.50;;;10.30;;
24787;SDS011;12883;52.662;5.196;2024-01-25T01:42:58;10.83;;;10.63;;
24787;SDS011;12883;52.662;5.196;2024-01-25T01:45:26;9.23;;;9.03;;
24787;SDS011;12883;52.662;5.196;2024-01-25T01:47:52;9.07;;;8.87;;
24787;SDS011;12883;52.662;5.196;2024-01-25T01:50:19;11.00;;;10.80;;
24787;SDS011;12883;52.662;5.196;2024-01-25T01:52:45;10.23;;;10.03;;
24787;SDS011;12883;52.662;5.196;2024-01-25T01:55:11;10.10;;;9.90;;
24787;SDS011;12883;52.662;5.196;2024-01-25T01:57:37;10.77;;;10.57;;
24787;SDS011;12883;52.662;5.196;2024-01-25T02:00:03;10.23;;;10.03;;
24787;SDS011;12883;52.662;5.196;2024-01-25T02:02:33;8.97;;;8.87;;
24787;SDS011;12883;52.662;5.196;2024-01-25T02:04:58;11.87;;;11.57;;
24787;SDS011;12883;52.662;5.196;2024-01-25T02:07:24;10.17;;;9.97;;
24787;SDS011;12883;52.662;5.196;2024-01-25T02:09:49;9.20;;;9.00;;
24787;SDS011;12883;52.662;5.196;2024-01-25T02:12:17;10.63;;;10.40;;
24787;SDS011;12883;52.662;5.196;2024-01-25T02:14:43;10.23;;;10.03;;
24787;SDS011;12883;52.662;5.196;2024-01-25T02:17:08;10.70;;;10.50;;
24787;SDS011;12883;52.662;5.196;2024-01-25T02:19:33;9.70;;;9.50;;
24787;SDS011;12883;52.662;5.196;2024-01-25T02:21:59;9.93;;;9.73;;
24787;SDS011;12883;52.662;5.196;2024-01-25T02:24:24;10.60;;;10.40;;
24787;SDS011;12883;52.662;5.196;2024-01-25T02:26:50;9.23;;;9.03;;
24787;SDS011;12883;52.662;5.196;2024-01-25T02:29:15;10.57;;;10.37;;
24787;SDS011;12883;52.662;5.196;2024-01-25T02:31:40;10.23;;;10.03;;
24787;SDS011;12883;52.662;5.196;2024-01-25T02:34:06;10.07;;;9.87;;
24787;SDS011;12883;52.662;5.196;2024-01-25T02:36:31;10.47;;;10.27;;
24787;SDS011;12883;52.662;5.196;2024-01-25T02:38:57;10.37;;;10.17;;
24787;SDS011;12883;52.662;5.196;2024-01-25T02:41:22;11.00;;;10.80;;
24787;SDS011;12883;52.662;5.196;2024-01-25T02:43:48;11.00;;;10.80;;
24787;SDS011;12883;52.662;5.196;2024-01-25T02:46:13;10.70;;;10.50;;
24787;SDS011;12883;52.662;5.196;2024-01-25T02:48:38;9.63;;;9.43;;
24787;SDS011;12883;52.662;5.196;2024-01-25T02:51:04;10.00;;;9.80;;
24787;SDS011;12883;52.662;5.196;2024-01-25T02:53:29;10.30;;;10.10;;
24787;SDS011;12883;52.662;5.196;2024-01-25T02:55:55;9.50;;;9.30;;
24787;SDS011;12883;52.662;5.196;2024-01-25T02:58:20;8.93;;;8.73;;
24787;SDS011;12883;52.662;5.196;2024-01-25T03:00:46;10.13;;;9.93;;
24787;SDS011;12883;52.662;5.196;2024-01-25T03:03:11;10.27;;;10.07;;
24787;SDS011;12883;52.662;5.196;2024-01-25T03:05:37;11.33;;;11.13;;
24787;SDS011;12883;52.662;5.196;2024-01-25T03:08:02;10.90;;;10.70;;
24787;SDS011;12883;52.662;5.196;2024-01-25T03:10:28;9.57;;;9.37;;
24787;SDS011;12883;52.662;5.196;2024-01-25T03:12:54;10.67;;;10.37;;
24787;SDS011;12883;52.662;5.196;2024-01-25T03:15:19;10.47;;;10.27;;
24787;SDS011;12883;52.662;5.196;2024-01-25T03:17:44;10.63;;;10.43;;
24787;SDS011;12883;52.662;5.196;2024-01-25T03:20:10;10.97;;;10.77;;
24787;SDS011;12883;52.662;5.196;2024-01-25T03:22:35;10.97;;;10.77;;
24787;SDS011;12883;52.662;5.196;2024-01-25T03:25:01;10.93;;;10.67;;
24787;SDS011;12883;52.662;5.196;2024-01-25T03:27:26;11.00;;;10.80;;
24787;SDS011;12883;52.662;5.196;2024-01-25T03:29:51;10.53;;;10.33;;
24787;SDS011;12883;52.662;5.196;2024-01-25T03:32:17;11.23;;;11.03;;
24787;SDS011;12883;52.662;5.196;2024-01-25T03:34:42;10.30;;;10.10;;
24787;SDS011;12883;52.662;5.196;2024-01-25T03:37:07;11.50;;;11.20;;
24787;SDS011;12883;52.662;5.196;2024-01-25T03:39:33;9.80;;;9.60;;
24787;SDS011;12883;52.662;5.196;2024-01-25T03:41:58;10.63;;;10.37;;
24787;SDS011;12883;52.662;5.196;2024-01-25T03:44:23;10.77;;;10.57;;
24787;SDS011;12883;52.662;5.196;2024-01-25T03:46:49;9.87;;;9.67;;
24787;SDS011;12883;52.662;5.196;2024-01-25T03:49:14;11.07;;;10.87;;
24787;SDS011;12883;52.662;5.196;2024-01-25T03:51:39;9.67;;;9.40;;
24787;SDS011;12883;52.662;5.196;2024-01-25T03:54:05;10.70;;;10.50;;
24787;SDS011;12883;52.662;5.196;2024-01-25T03:56:30;10.67;;;10.37;;
24787;SDS011;12883;52.662;5.196;2024-01-25T03:58:55;11.30;;;11.03;;
24787;SDS011;12883;52.662;5.196;2024-01-25T04:01:21;11.90;;;11.70;;
24787;SDS011;12883;52.662;5.196;2024-01-25T04:03:46;10.77;;;10.50;;
24787;SDS011;12883;52.662;5.196;2024-01-25T04:06:12;10.00;;;9.80;;
24787;SDS011;12883;52.662;5.196;2024-01-25T04:08:37;9.20;;;9.00;;
24787;SDS011;12883;52.662;5.196;2024-01-25T04:11:02;11.20;;;10.97;;
24787;SDS011;12883;52.662;5.196;2024-01-25T04:13:28;10.77;;;10.57;;
24787;SDS011;12883;52.662;5.196;2024-01-25T04:15:53;11.13;;;10.83;;
24787;SDS011;12883;52.662;5.196;2024-01-25T04:18:19;11.03;;;10.83;;
24787;SDS011;12883;52.662;5.196;2024-01-25T04:20:44;10.03;;;9.83;;
24787;SDS011;12883;52.662;5.196;2024-01-25T04:23:09;11.13;;;10.93;;
24787;SDS011;12883;52.662;5.196;2024-01-25T04:25:35;10.17;;;9.97;;
24787;SDS011;12883;52.662;5.196;2024-01-25T04:28:00;9.87;;;9.67;;
24787;SDS011;12883;52.662;5.196;2024-01-25T04:30:26;10.57;;;10.37;;
24787;SDS011;12883;52.662;5.196;2024-01-25T04:32:52;11.00;;;10.80;;
24787;SDS011;12883;52.662;5.196;2024-01-25T04:35:17;10.53;;;10.33;;
24787;SDS011;12883;52.662;5.196;2024-01-25T04:37:43;10.97;;;10.77;;
24787;SDS011;12883;52.662;5.196;2024-01-25T04:40:08;10.23;;;10.03;;
24787;SDS011;12883;52.662;5.196;2024-01-25T04:42:34;12.70;;;12.40;;
24787;SDS011;12883;52.662;5.196;2024-01-25T04:44:59;12.13;;;11.83;;
24787;SDS011;12883;52.662;5.196;2024-01-25T04:47:25;10.37;;;10.17;;
24787;SDS011;12883;52.662;5.196;2024-01-25T04:49:50;10.40;;;10.20;;
24787;SDS011;12883;52.662;5.196;2024-01-25T04:52:15;9.10;;;8.90;;
24787;SDS011;12883;52.662;5.196;2024-01-25T04:54:41;9.77;;;9.57;;
24787;SDS011;12883;52.662;5.196;2024-01-25T04:57:06;10.77;;;10.57;;
24787;SDS011;12883;52.662;5.196;2024-01-25T04:59:32;9.20;;;9.00;;
24787;SDS011;12883;52.662;5.196;2024-01-25T05:01:58;10.50;;;10.30;;
24787;SDS011;12883;52.662;5.196;2024-01-25T05:04:24;10.87;;;10.67;;
24787;SDS011;12883;52.662;5.196;2024-01-25T05:06:49;9.50;;;9.30;;
24787;SDS011;12883;52.662;5.196;2024-01-25T05:09:14;10.20;;;10.00;;
24787;SDS011;12883;52.662;5.196;2024-01-25T05:11:40;9.80;;;9.60;;
24787;SDS011;12883;52.662;5.196;2024-01-25T05:14:05;9.90;;;9.70;;
24787;SDS011;12883;52.662;5.196;2024-01-25T05:16:31;12.03;;;11.73;;
24787;SDS011;12883;52.662;5.196;2024-01-25T05:18:57;12.90;;;12.60;;
24787;SDS011;12883;52.662;5.196;2024-01-25T05:21:22;18.07;;;17.77;;
24787;SDS011;12883;52.662;5.196;2024-01-25T05:23:47;18.40;;;18.10;;
24787;SDS011;12883;52.662;5.196;2024-01-25T05:26:13;15.33;;;15.10;;
24787;SDS011;12883;52.662;5.196;2024-01-25T05:28:38;10.97;;;10.77;;
24787;SDS011;12883;52.662;5.196;2024-01-25T05:31:04;11.63;;;11.37;;
24787;SDS011;12883;52.662;5.196;2024-01-25T05:33:29;10.87;;;10.67;;
24787;SDS011;12883;52.662;5.196;2024-01-25T05:35:54;10.23;;;10.03;;
24787;SDS011;12883;52.662;5.196;2024-01-25T05:38:20;10.97;;;10.73;;
24787;SDS011;12883;52.662;5.196;2024-01-25T05:40:45;10.60;;;10.40;;
24787;SDS011;12883;52.662;5.196;2024-01-25T05:43:10;10.63;;;10.33;;
24787;SDS011;12883;52.662;5.196;2024-01-25T05:45:36;10.10;;;9.90;;
24787;SDS011;12883;52.662;5.196;2024-01-25T05:48:01;8.77;;;8.57;;
24787;SDS011;12883;52.662;5.196;2024-01-25T05:50:27;11.23;;;11.03;;
24787;SDS011;12883;52.662;5.196;2024-01-25T05:52:52;10.87;;;10.67;;
24787;SDS011;12883;52.662;5.196;2024-01-25T05:55:18;11.23;;;11.03;;
24787;SDS011;12883;52.662;5.196;2024-01-25T05:57:43;9.13;;;8.93;;
24787;SDS011;12883;52.662;5.196;2024-01-25T06:00:13;10.33;;;10.13;;
24787;SDS011;12883;52.662;5.196;2024-01-25T06:02:40;8.87;;;8.67;;
24787;SDS011;12883;52.662;5.196;2024-01-25T06:05:05;8.73;;;8.53;;
24787;SDS011;12883;52.662;5.196;2024-01-25T06:07:31;9.37;;;9.17;;
24787;SDS011;12883;52.662;5.196;2024-01-25T06:09:56;9.63;;;9.43;;
24787;SDS011;12883;52.662;5.196;2024-01-25T06:12:22;10.60;;;10.37;;
24787;SDS011;12883;52.662;5.196;2024-01-25T06:14:47;8.73;;;8.60;;
24787;SDS011;12883;52.662;5.196;2024-01-25T06:17:13;10.50;;;10.20;;
24787;SDS011;12883;52.662;5.196;2024-01-25T06:19:38;9.03;;;8.83;;
24787;SDS011;12883;52.662;5.196;2024-01-25T06:22:04;8.90;;;8.70;;
24787;SDS011;12883;52.662;5.196;2024-01-25T06:24:29;9.70;;;9.47;;
24787;SDS011;12883;52.662;5.196;2024-01-25T06:26:55;9.80;;;9.60;;
24787;SDS011;12883;52.662;5.196;2024-01-25T06:29:20;12.47;;;12.27;;
24787;SDS011;12883;52.662;5.196;2024-01-25T06:31:45;9.83;;;9.63;;
24787;SDS011;12883;52.662;5.196;2024-01-25T06:34:11;10.57;;;10.27;;
24787;SDS011;12883;52.662;5.196;2024-01-25T06:36:36;9.77;;;9.47;;
24787;SDS011;12883;52.662;5.196;2024-01-25T06:39:02;9.73;;;9.50;;
24787;SDS011;12883;52.662;5.196;2024-01-25T06:41:29;10.30;;;10.10;;
24787;SDS011;12883;52.662;5.196;2024-01-25T06:43:54;9.37;;;9.17;;
24787;SDS011;12883;52.662;5.196;2024-01-25T06:46:20;10.20;;;10.00;;
24787;SDS011;12883;52.662;5.196;2024-01-25T06:48:45;10.77;;;10.57;;
24787;SDS011;12883;52.662;5.196;2024-01-25T06:51:11;10.10;;;9.90;;
24787;SDS011;12883;52.662;5.196;2024-01-25T06:53:36;10.67;;;10.40;;
24787;SDS011;12883;52.662;5.196;2024-01-25T06:56:01;9.07;;;8.87;;
24787;SDS011;12883;52.662;5.196;2024-01-25T06:58:27;11.03;;;10.77;;
24787;SDS011;12883;52.662;5.196;2024-01-25T07:00:52;11.50;;;11.30;;
24787;SDS011;12883;52.662;5.196;2024-01-25T07:03:18;9.97;;;9.77;;
24787;SDS011;12883;52.662;5.196;2024-01-25T07:05:43;9.97;;;9.77;;
24787;SDS011;12883;52.662;5.196;2024-01-25T07:08:09;9.30;;;9.10;;
24787;SDS011;12883;52.662;5.196;2024-01-25T07:10:39;10.23;;;10.03;;
24787;SDS011;12883;52.662;5.196;2024-01-25T07:13:04;9.47;;;9.27;;
24787;SDS011;12883;52.662;5.196;2024-01-25T07:15:30;11.80;;;11.60;;
24787;SDS011;12883;52.662;5.196;2024-01-25T07:17:55;10.73;;;10.53;;
24787;SDS011;12883;52.662;5.196;2024-01-25T07:20:21;9.73;;;9.53;;
24787;SDS011;12883;52.662;5.196;2024-01-25T07:22:46;9.57;;;9.30;;
24787;SDS011;12883;52.662;5.196;2024-01-25T07:25:11;10.40;;;10.20;;
24787;SDS011;12883;52.662;5.196;2024-01-25T07:27:37;10.93;;;10.73;;
24787;SDS011;12883;52.662;5.196;2024-01-25T07:30:02;11.17;;;10.97;;
24787;SDS011;12883;52.662;5.196;2024-01-25T07:32:28;10.00;;;9.80;;
24787;SDS011;12883;52.662;5.196;2024-01-25T07:34:54;10.10;;;9.90;;
24787;SDS011;12883;52.662;5.196;2024-01-25T07:37:19;10.33;;;10.13;;
24787;SDS011;12883;52.662;5.196;2024-01-25T07:39:46;10.23;;;10.03;;
24787;SDS011;12883;52.662;5.196;2024-01-25T07:42:11;10.80;;;10.60;;
24787;SDS011;12883;52.662;5.196;2024-01-25T07:44:37;9.67;;;9.47;;
24787;SDS011;12883;52.662;5.196;2024-01-25T07:47:03;11.23;;;10.93;;
24787;SDS011;12883;52.662;5.196;2024-01-25T07:49:29;9.93;;;9.73;;
24787;SDS011;12883;52.662;5.196;2024-01-25T07:51:54;10.57;;;10.27;;
24787;SDS011;12883;52.662;5.196;2024-01-25T07:54:21;11.30;;;11.00;;
24787;SDS011;12883;52.662;5.196;2024-01-25T07:56:47;10.53;;;10.33;;
24787;SDS011;12883;52.662;5.196;2024-01-25T07:59:12;10.33;;;10.13;;
24787;SDS011;12883;52.662;5.196;2024-01-25T08:01:38;10.17;;;9.97;;
24787;SDS011;12883;52.662;5.196;2024-01-25T08:04:03;11.57;;;11.27;;
24787;SDS011;12883;52.662;5.196;2024-01-25T08:06:28;10.20;;;10.00;;
24787;SDS011;12883;52.662;5.196;2024-01-25T08:08:54;11.80;;;11.57;;
24787;SDS011;12883;52.662;5.196;2024-01-25T08:11:19;11.77;;;11.57;;
24787;SDS011;12883;52.662;5.196;2024-01-25T08:13:45;10.23;;;10.03;;
24787;SDS011;12883;52.662;5.196;2024-01-25T08:16:11;10.73;;;10.53;;
24787;SDS011;12883;52.662;5.196;2024-01-25T08:18:36;10.50;;;10.27;;
24787;SDS011;12883;52.662;5.196;2024-01-25T08:21:02;11.50;;;11.30;;
24787;SDS011;12883;52.662;5.196;2024-01-25T08:23:27;10.80;;;10.60;;
24787;SDS011;12883;52.662;5.196;2024-01-25T08:25:53;11.43;;;11.23;;
24787;SDS011;12883;52.662;5.196;2024-01-25T08:28:18;9.63;;;9.43;;
24787;SDS011;12883;52.662;5.196;2024-01-25T08:30:45;11.20;;;11.00;;
24787;SDS011;12883;52.662;5.196;2024-01-25T08:33:10;11.20;;;10.90;;
24787;SDS011;12883;52.662;5.196;2024-01-25T08:35:36;11.40;;;11.20;;
24787;SDS011;12883;52.662;5.196;2024-01-25T08:38:01;11.07;;;10.87;;
24787;SDS011;12883;52.662;5.196;2024-01-25T08:40:27;10.40;;;10.20;;
24787;SDS011;12883;52.662;5.196;2024-01-25T08:42:53;11.57;;;11.27;;
24787;SDS011;12883;52.662;5.196;2024-01-25T08:45:18;10.80;;;10.60;;
24787;SDS011;12883;52.662;5.196;2024-01-25T08:47:44;9.47;;;9.27;;
24787;SDS011;12883;52.662;5.196;2024-01-25T08:50:10;10.40;;;10.20;;
24787;SDS011;12883;52.662;5.196;2024-01-25T08:52:36;10.60;;;10.40;;
24787;SDS011;12883;52.662;5.196;2024-01-25T08:55:03;12.97;;;12.67;;
24787;SDS011;12883;52.662;5.196;2024-01-25T08:57:30;11.30;;;11.10;;
24787;SDS011;12883;52.662;5.196;2024-01-25T08:59:56;10.30;;;10.10;;
24787;SDS011;12883;52.662;5.196;2024-01-25T09:02:23;10.43;;;10.23;;
24787;SDS011;12883;52.662;5.196;2024-01-25T09:04:52;11.73;;;11.43;;
24787;SDS011;12883;52.662;5.196;2024-01-25T09:07:19;12.90;;;12.60;;
24787;SDS011;12883;52.662;5.196;2024-01-25T09:09:44;11.00;;;10.73;;
24787;SDS011;12883;52.662;5.196;2024-01-25T09:12:10;10.50;;;10.30;;
24787;SDS011;12883;52.662;5.196;2024-01-25T09:14:36;11.60;;;11.33;;
24787;SDS011;12883;52.662;5.196;2024-01-25T09:17:02;11.40;;;11.20;;
24787;SDS011;12883;52.662;5.196;2024-01-25T09:19:27;11.57;;;11.27;;
24787;SDS011;12883;52.662;5.196;2024-01-25T09:21:52;11.17;;;10.97;;
24787;SDS011;12883;52.662;5.196;2024-01-25T09:24:18;11.80;;;11.60;;
24787;SDS011;12883;52.662;5.196;2024-01-25T09:26:43;11.77;;;11.57;;
24787;SDS011;12883;52.662;5.196;2024-01-25T09:29:08;10.60;;;10.40;;
24787;SDS011;12883;52.662;5.196;2024-01-25T09:31:34;12.20;;;11.90;;
24787;SDS011;12883;52.662;5.196;2024-01-25T09:34:00;11.30;;;11.10;;
24787;SDS011;12883;52.662;5.196;2024-01-25T09:36:25;11.97;;;11.77;;
24787;SDS011;12883;52.662;5.196;2024-01-25T09:38:50;11.50;;;11.20;;
24787;SDS011;12883;52.662;5.196;2024-01-25T09:41:16;13.43;;;13.20;;
24787;SDS011;12883;52.662;5.196;2024-01-25T09:43:41;11.53;;;11.33;;
24787;SDS011;12883;52.662;5.196;2024-01-25T09:46:08;11.40;;;11.20;;
24787;SDS011;12883;52.662;5.196;2024-01-25T09:48:38;12.80;;;12.60;;
24787;SDS011;12883;52.662;5.196;2024-01-25T09:51:05;13.40;;;13.10;;
24787;SDS011;12883;52.662;5.196;2024-01-25T09:53:31;11.10;;;10.83;;
24787;SDS011;12883;52.662;5.196;2024-01-25T09:56:08;12.27;;;11.97;;
24787;SDS011;12883;52.662;5.196;2024-01-25T09:58:41;11.87;;;11.67;;
24787;SDS011;12883;52.662;5.196;2024-01-25T10:01:08;13.00;;;12.80;;
24787;SDS011;12883;52.662;5.196;2024-01-25T10:03:46;12.43;;;12.13;;
24787;SDS011;12883;52.662;5.196;2024-01-25T10:06:12;15.43;;;15.13;;
24787;SDS011;12883;52.662;5.196;2024-01-25T10:08:38;13.87;;;13.57;;
24787;SDS011;12883;52.662;5.196;2024-01-25T10:11:04;14.47;;;14.17;;
24787;SDS011;12883;52.662;5.196;2024-01-25T10:13:29;12.40;;;12.20;;
24787;SDS011;12883;52.662;5.196;2024-01-25T10:15:55;13.50;;;13.20;;
24787;SDS011;12883;52.662;5.196;2024-01-25T10:18:22;12.33;;;12.13;;
24787;SDS011;12883;52.662;5.196;2024-01-25T10:20:48;13.73;;;13.53;;
24787;SDS011;12883;52.662;5.196;2024-01-25T10:23:13;13.13;;;12.93;;
24787;SDS011;12883;52.662;5.196;2024-01-25T10:25:38;12.57;;;12.37;;
24787;SDS011;12883;52.662;5.196;2024-01-25T10:28:04;13.20;;;12.90;;
24787;SDS011;12883;52.662;5.196;2024-01-25T10:30:33;14.07;;;13.77;;
24787;SDS011;12883;52.662;5.196;2024-01-25T10:33:01;13.90;;;13.60;;
24787;SDS011;12883;52.662;5.196;2024-01-25T10:35:27;13.33;;;13.03;;
24787;SDS011;12883;52.662;5.196;2024-01-25T10:37:53;14.00;;;13.70;;
24787;SDS011;12883;52.662;5.196;2024-01-25T10:40:20;13.70;;;13.40;;
24787;SDS011;12883;52.662;5.196;2024-01-25T10:42:46;11.63;;;11.43;;
24787;SDS011;12883;52.662;5.196;2024-01-25T10:45:12;13.77;;;13.53;;
24787;SDS011;12883;52.662;5.196;2024-01-25T10:47:38;12.97;;;12.77;;
24787;SDS011;12883;52.662;5.196;2024-01-25T10:50:06;13.93;;;13.73;;
24787;SDS011;12883;52.662;5.196;2024-01-25T10:52:34;12.43;;;12.23;;
24787;SDS011;12883;52.662;5.196;2024-01-25T10:55:02;13.47;;;13.27;;
24787;SDS011;12883;52.662;5.196;2024-01-25T10:57:39;13.60;;;13.30;;
24787;SDS011;12883;52.662;5.196;2024-01-25T11:00:12;13.60;;;13.40;;
24787;SDS011;12883;52.662;5.196;2024-01-25T11:02:39;15.07;;;14.77;;
24787;SDS011;12883;52.662;5.196;2024-01-25T11:05:06;13.57;;;13.37;;
24787;SDS011;12883;52.662;5.196;2024-01-25T11:07:45;13.70;;;13.40;;
24787;SDS011;12883;52.662;5.196;2024-01-25T11:10:16;12.73;;;12.53;;
24787;SDS011;12883;52.662;5.196;2024-01-25T11:12:59;12.97;;;12.77;;
24787;SDS011;12883;52.662;5.196;2024-01-25T11:15:35;13.23;;;13.03;;
24787;SDS011;12883;52.662;5.196;2024-01-25T11:18:02;14.00;;;13.70;;
24787;SDS011;12883;52.662;5.196;2024-01-25T11:20:31;13.13;;;12.93;;
24787;SDS011;12883;52.662;5.196;2024-01-25T11:23:04;13.17;;;12.97;;
24787;SDS011;12883;52.662;5.196;2024-01-25T11:25:36;12.80;;;12.60;;
24787;SDS011;12883;52.662;5.196;2024-01-25T11:28:03;12.37;;;12.17;;
24787;SDS011;12883;52.662;5.196;2024-01-25T11:30:31;12.10;;;11.90;;
24787;SDS011;12883;52.662;5.196;2024-01-25T11:32:58;11.90;;;11.70;;
24787;SDS011;12883;52.662;5.196;2024-01-25T11:35:24;11.60;;;11.40;;
24787;SDS011;12883;52.662;5.196;2024-01-25T11:37:50;12.77;;;12.57;;
24787;SDS011;12883;52.662;5.196;2024-01-25T11:40:19;13.30;;;13.10;;
24787;SDS011;12883;52.662;5.196;2024-01-25T11:42:49;12.03;;;11.83;;
24787;SDS011;12883;52.662;5.196;2024-01-25T11:45:16;11.70;;;11.50;;
24787;SDS011;12883;52.662;5.196;2024-01-25T11:47:42;11.97;;;11.77;;
24787;SDS011;12883;52.662;5.196;2024-01-25T11:50:09;12.57;;;12.37;;
24787;SDS011;12883;52.662;5.196;2024-01-25T11:52:36;12.37;;;12.10;;
24787;SDS011;12883;52.662;5.196;2024-01-25T11:55:02;12.07;;;11.87;;
24787;SDS011;12883;52.662;5.196;2024-01-25T11:57:32;11.77;;;11.57;;
24787;SDS011;12883;52.662;5.196;2024-01-25T12:00:05;11.07;;;10.87;;
24787;SDS011;12883;52.662;5.196;2024-01-25T12:02:34;12.97;;;12.77;;
24787;SDS011;12883;52.662;5.196;2024-01-25T12:05:02;13.60;;;13.40;;
24787;SDS011;12883;52.662;5.196;2024-01-25T12:07:29;12.57;;;12.37;;
24787;SDS011;12883;52.662;5.196;2024-01-25T12:09:58;13.43;;;13.23;;
24787;SDS011;12883;52.662;5.196;2024-01-25T12:12:25;12.30;;;12.10;;
24787;SDS011;12883;52.662;5.196;2024-01-25T12:14:50;12.50;;;12.30;;
24787;SDS011;12883;52.662;5.196;2024-01-25T12:17:17;12.77;;;12.57;;
24787;SDS011;12883;52.662;5.196;2024-01-25T12:19:42;13.10;;;12.90;;
24787;SDS011;12883;52.662;5.196;2024-01-25T12:22:08;12.47;;;12.27;;
24787;SDS011;12883;52.662;5.196;2024-01-25T12:24:33;14.03;;;13.83;;
24787;SDS011;12883;52.662;5.196;2024-01-25T12:27:00;12.67;;;12.47;;
24787;SDS011;12883;52.662;5.196;2024-01-25T12:29:25;13.03;;;12.83;;
24787;SDS011;12883;52.662;5.196;2024-01-25T12:31:51;13.37;;;13.17;;
24787;SDS011;12883;52.662;5.196;2024-01-25T12:34:16;13.20;;;13.00;;
24787;SDS011;12883;52.662;5.196;2024-01-25T12:36:41;14.23;;;14.03;;
24787;SDS011;12883;52.662;5.196;2024-01-25T12:39:07;14.73;;;14.53;;
24787;SDS011;12883;52.662;5.196;2024-01-25T12:41:33;13.70;;;13.50;;
24787;SDS011;12883;52.662;5.196;2024-01-25T12:43:58;13.40;;;13.20;;
24787;SDS011;12883;52.662;5.196;2024-01-25T12:46:23;12.90;;;12.70;;
24787;SDS011;12883;52.662;5.196;2024-01-25T12:48:49;13.47;;;13.27;;
24787;SDS011;12883;52.662;5.196;2024-01-25T12:51:19;14.00;;;13.80;;
24787;SDS011;12883;52.662;5.196;2024-01-25T12:53:45;11.83;;;11.63;;
24787;SDS011;12883;52.662;5.196;2024-01-25T12:56:11;11.73;;;11.53;;
24787;SDS011;12883;52.662;5.196;2024-01-25T12:58:36;11.53;;;11.33;;
24787;SDS011;12883;52.662;5.196;2024-01-25T13:01:02;12.13;;;11.93;;
24787;SDS011;12883;52.662;5.196;2024-01-25T13:03:27;12.60;;;12.40;;
24787;SDS011;12883;52.662;5.196;2024-01-25T13:05:52;12.67;;;12.47;;
24787;SDS011;12883;52.662;5.196;2024-01-25T13:08:18;11.70;;;11.50;;
24787;SDS011;12883;52.662;5.196;2024-01-25T13:10:43;12.10;;;11.90;;
24787;SDS011;12883;52.662;5.196;2024-01-25T13:13:08;12.07;;;11.87;;
24787;SDS011;12883;52.662;5.196;2024-01-25T13:15:34;11.90;;;11.70;;
24787;SDS011;12883;52.662;5.196;2024-01-25T13:17:59;12.50;;;12.30;;
24787;SDS011;12883;52.662;5.196;2024-01-25T13:20:26;11.87;;;11.67;;
24787;SDS011;12883;52.662;5.196;2024-01-25T13:22:51;12.03;;;11.83;;
24787;SDS011;12883;52.662;5.196;2024-01-25T13:25:17;12.30;;;12.10;;
24787;SDS011;12883;52.662;5.196;2024-01-25T13:27:42;11.10;;;10.90;;
24787;SDS011;12883;52.662;5.196;2024-01-25T13:30:07;11.13;;;10.93;;
24787;SDS011;12883;52.662;5.196;2024-01-25T13:32:36;12.97;;;12.77;;
24787;SDS011;12883;52.662;5.196;2024-01-25T13:35:01;11.30;;;11.10;;
24787;SDS011;12883;52.662;5.196;2024-01-25T13:37:27;10.63;;;10.47;;
24787;SDS011;12883;52.662;5.196;2024-01-25T13:39:52;12.13;;;11.93;;
24787;SDS011;12883;52.662;5.196;2024-01-25T13:42:17;11.13;;;10.93;;
24787;SDS011;12883;52.662;5.196;2024-01-25T13:44:43;11.70;;;11.50;;
24787;SDS011;12883;52.662;5.196;2024-01-25T13:47:09;12.00;;;11.80;;
24787;SDS011;12883;52.662;5.196;2024-01-25T13:49:34;11.40;;;11.20;;
24787;SDS011;12883;52.662;5.196;2024-01-25T13:52:00;10.93;;;10.73;;
24787;SDS011;12883;52.662;5.196;2024-01-25T13:54:28;11.93;;;11.73;;
24787;SDS011;12883;52.662;5.196;2024-01-25T13:56:54;11.93;;;11.73;;
24787;SDS011;12883;52.662;5.196;2024-01-25T13:59:20;11.07;;;10.87;;
24787;SDS011;12883;52.662;5.196;2024-01-25T14:01:46;11.30;;;11.10;;
24787;SDS011;12883;52.662;5.196;2024-01-25T14:04:11;13.63;;;13.37;;
24787;SDS011;12883;52.662;5.196;2024-01-25T14:06:37;11.80;;;11.60;;
24787;SDS011;12883;52.662;5.196;2024-01-25T14:09:02;12.80;;;12.60;;
24787;SDS011;12883;52.662;5.196;2024-01-25T14:11:28;12.33;;;12.13;;
24787;SDS011;12883;52.662;5.196;2024-01-25T14:13:53;11.80;;;11.60;;
24787;SDS011;12883;52.662;5.196;2024-01-25T14:16:19;13.97;;;13.77;;
24787;SDS011;12883;52.662;5.196;2024-01-25T14:18:44;11.50;;;11.30;;